createdAt,value
2023-03-17T00:40:08.129Z,11.75
2023-03-17T00:41:08.197Z,11.75
2023-03-17T00:42:08.307Z,11.78
2023-03-17T00:50:08.604Z,11.68
2023-03-17T00:51:08.639Z,11.40
2023-03-17T00:52:08.773Z,11.36
2023-03-17T00:53:08.678Z,11.36
2023-03-17T00:54:08.702Z,11.33
2023-03-17T00:55:08.765Z,11.48
2023-03-17T00:56:08.855Z,11.44
2023-03-17T00:57:08.863Z,11.30
2023-03-17T00:58:08.935Z,11.34
2023-03-17T00:59:08.952Z,11.24
2023-03-17T01:00:08.997Z,11.25
2023-03-17T01:01:09.094Z,11.30
2023-03-17T01:02:09.175Z,11.10
2023-03-17T01:03:09.164Z,11.07
2023-03-17T01:04:09.215Z,11.04
2023-03-17T01:05:09.288Z,10.85
2023-03-17T01:06:09.340Z,10.87
2023-03-17T01:07:09.368Z,10.62
2023-03-17T01:08:09.399Z,10.52
2023-03-17T01:09:09.424Z,10.74
2023-03-17T01:10:09.440Z,10.54
2023-03-17T01:11:09.500Z,10.68
2023-03-17T01:12:09.577Z,10.59
2023-03-17T01:13:09.630Z,10.74
2023-03-17T01:14:09.687Z,10.55
2023-03-17T01:15:09.738Z,10.52
2023-03-17T01:16:09.849Z,10.43
2023-03-17T01:17:09.833Z,10.28
2023-03-17T01:18:09.889Z,10.32
2023-03-17T01:19:10.015Z,10.44
2023-03-17T01:20:09.920Z,10.19
2023-03-17T01:21:09.945Z,10.20
2023-03-17T01:22:10.439Z,10.37
2023-03-17T01:23:09.996Z,10.16
2023-03-17T01:25:10.444Z,9.98
2023-03-17T01:26:10.074Z,9.93
2023-03-17T01:27:10.124Z,9.96
2023-03-17T01:28:10.164Z,9.94
2023-03-17T01:29:10.226Z,9.99
2023-03-17T01:30:10.285Z,9.97
2023-03-17T01:31:10.382Z,10.04
2023-03-17T01:32:10.375Z,9.98
2023-03-17T04:00:18.423Z,6.12
2023-03-17T04:07:17.998Z,6.11
2023-03-17T04:08:18.000Z,6.05
2023-03-17T04:09:18.040Z,6.00
2023-03-17T04:10:18.103Z,5.98
2023-03-17T04:11:18.438Z,5.96
2023-03-17T04:12:18.187Z,5.88
2023-03-17T04:13:18.265Z,5.85
2023-03-17T04:14:18.306Z,5.86
2023-03-17T04:15:18.365Z,5.91
2023-03-17T04:16:18.460Z,5.88
2023-03-17T04:17:18.478Z,5.90
2023-03-17T04:18:18.520Z,5.83
2023-03-17T04:19:18.654Z,5.79
2023-03-17T04:20:18.548Z,5.79
2023-03-17T04:21:18.582Z,5.71
2023-03-17T04:22:18.603Z,5.83
2023-03-17T04:23:18.625Z,5.78
2023-03-17T04:24:18.647Z,5.72
2023-03-17T04:25:18.662Z,5.72
2023-03-17T04:26:18.764Z,5.74
2023-03-17T04:27:18.709Z,5.74
2023-03-17T04:28:18.723Z,5.72
2023-03-17T07:27:28.421Z,3.72
2023-03-17T07:32:28.027Z,5.80
2023-03-17T07:33:28.030Z,6.18
2023-03-17T07:34:28.087Z,6.34
2023-03-17T07:35:28.244Z,6.35
2023-03-17T07:36:28.233Z,6.36
2023-03-17T07:37:28.303Z,6.21
2023-03-17T07:38:28.995Z,6.23
2023-03-17T07:39:28.465Z,6.44
2023-03-17T07:40:28.606Z,6.36
2023-03-17T07:41:28.658Z,6.55
2023-03-17T07:42:28.668Z,6.69
2023-03-17T07:43:28.737Z,6.77
2023-03-17T07:44:28.820Z,6.87
2023-03-17T07:45:29.326Z,7.24
2023-03-17T07:46:29.035Z,7.23
2023-03-17T07:47:29.034Z,7.29
2023-03-17T07:48:29.123Z,7.42
2023-03-17T07:49:40.794Z,7.56
2023-03-17T07:50:30.251Z,7.56
2023-03-17T07:51:29.195Z,7.58
2023-03-17T07:52:29.228Z,7.59
2023-03-17T07:53:29.211Z,7.64
2023-03-17T07:54:29.501Z,7.77
2023-03-17T07:55:29.391Z,7.87
2023-03-17T07:56:29.227Z,7.84
2023-03-17T07:57:29.308Z,7.91
2023-03-17T07:58:29.316Z,8.02
2023-03-17T07:59:29.468Z,7.94
2023-03-17T08:00:30.148Z,7.85
2023-03-17T08:01:29.498Z,7.82
2023-03-17T08:02:29.622Z,7.93
2023-03-17T08:03:29.738Z,7.95
2023-03-17T08:04:29.755Z,7.71
2023-03-17T08:05:29.814Z,7.59
2023-03-17T08:06:29.918Z,7.78
2023-03-17T08:07:29.929Z,7.81
2023-03-17T08:08:30.014Z,7.53
2023-03-17T08:09:30.085Z,7.69
2023-03-17T08:10:30.602Z,7.66
2023-03-17T08:11:30.228Z,7.44
2023-03-17T08:12:30.295Z,7.57
2023-03-17T08:13:30.904Z,7.57
2023-03-17T08:14:30.465Z,7.42
2023-03-17T08:15:30.526Z,7.56
2023-03-17T08:16:30.630Z,7.68
2023-03-17T08:17:30.698Z,7.56
2023-03-17T08:18:30.726Z,7.09
2023-03-17T08:19:30.800Z,6.33
2023-03-17T08:20:31.262Z,6.64
2023-03-17T08:21:32.832Z,6.13
2023-03-17T08:22:31.036Z,6.08
2023-03-17T08:23:31.074Z,6.43
2023-03-17T08:24:32.854Z,6.43
2023-03-17T08:25:31.065Z,6.44
2023-03-17T08:26:31.098Z,6.58
2023-03-17T08:27:33.647Z,7.07
2023-03-17T08:28:31.092Z,7.98
2023-03-17T08:29:31.092Z,8.06
2023-03-17T08:30:33.555Z,8.09
2023-03-17T08:31:31.111Z,8.10
2023-03-17T08:32:31.185Z,8.09
2023-03-17T08:33:31.134Z,8.17
2023-03-17T08:34:31.116Z,8.17
2023-03-17T08:35:31.707Z,7.93
2023-03-17T08:36:31.246Z,7.66
2023-03-17T08:37:31.129Z,7.47
2023-03-17T08:38:31.132Z,7.41
2023-03-17T08:39:31.133Z,7.38
2023-03-17T08:40:31.691Z,7.92
2023-03-17T08:41:31.153Z,7.23
2023-03-17T08:42:31.146Z,6.90
2023-03-17T08:43:31.156Z,6.70
2023-03-17T08:44:31.203Z,6.49
2023-03-17T08:45:31.783Z,6.30
2023-03-17T08:46:31.221Z,6.17
2023-03-17T08:47:31.182Z,6.03
2023-03-17T08:48:31.224Z,5.93
2023-03-17T08:49:31.201Z,5.73
2023-03-17T08:50:31.588Z,5.59
2023-03-17T08:51:31.191Z,5.54
2023-03-17T08:52:31.193Z,5.54
2023-03-17T08:53:31.209Z,5.31
2023-03-17T08:54:31.202Z,5.44
2023-03-17T08:55:31.220Z,5.40
2023-03-17T08:56:32.215Z,5.40
2023-03-17T08:57:31.217Z,5.34
2023-03-17T08:58:31.223Z,5.36
2023-03-17T08:59:31.250Z,5.37
2023-03-17T09:00:31.456Z,5.40
2023-03-17T09:01:31.267Z,5.41
2023-03-17T09:02:31.266Z,5.34
2023-03-17T09:03:31.258Z,5.26
2023-03-17T09:04:31.247Z,5.36
2023-03-17T09:05:31.638Z,5.32
2023-03-17T09:06:31.258Z,5.23
2023-03-17T09:07:31.289Z,5.33
2023-03-17T09:08:31.387Z,5.40
2023-03-17T09:09:31.418Z,5.27
2023-03-17T09:10:34.494Z,5.36
2023-03-17T09:11:31.489Z,5.38
2023-03-17T12:15:38.428Z,5.93
2023-03-17T12:18:38.004Z,5.99
2023-03-17T12:19:38.039Z,5.91
2023-03-17T12:20:38.099Z,6.00
2023-03-17T12:21:38.902Z,6.42
2023-03-17T12:22:38.121Z,6.79
2023-03-17T12:23:38.159Z,6.85
2023-03-17T12:24:38.201Z,6.90
2023-03-17T12:25:38.232Z,7.05
2023-03-17T12:26:38.258Z,7.10
2023-03-17T12:27:38.292Z,7.14
2023-03-17T12:28:38.328Z,7.02
2023-03-17T12:29:38.381Z,7.15
2023-03-17T12:30:39.381Z,7.35
2023-03-17T12:31:38.440Z,7.51
2023-03-17T12:32:38.528Z,7.47
2023-03-17T12:33:38.559Z,7.57
2023-03-17T12:34:38.542Z,7.49
2023-03-17T12:35:38.659Z,7.41
2023-03-17T12:36:38.604Z,7.43
2023-03-17T12:37:38.630Z,7.59
2023-03-17T12:38:38.668Z,7.72
2023-03-17T12:39:38.763Z,7.74
2023-03-17T12:40:38.728Z,7.73
2023-03-17T12:41:38.772Z,7.90
2023-03-17T12:42:38.802Z,7.80
2023-03-17T12:43:38.823Z,7.78
2023-03-17T12:44:38.861Z,7.59
2023-03-17T12:45:38.896Z,7.70
2023-03-17T12:46:38.950Z,7.60
2023-03-17T12:47:38.939Z,7.54
2023-03-17T12:48:38.966Z,7.59
2023-03-17T12:49:39.019Z,7.77
2023-03-17T12:50:39.029Z,7.66
2023-03-17T12:51:39.061Z,7.54
2023-03-17T12:52:39.085Z,7.73
2023-03-17T12:53:39.120Z,7.72
2023-03-17T12:54:39.164Z,7.79
2023-03-17T12:55:39.193Z,7.30
2023-03-17T12:56:39.249Z,6.53
2023-03-17T12:57:39.280Z,5.89
2023-03-17T12:58:39.310Z,5.48
2023-03-17T12:59:39.386Z,5.49
2023-03-17T13:00:39.390Z,5.34
2023-03-17T13:01:39.465Z,4.75
2023-03-17T13:02:39.415Z,4.48
2023-03-17T13:03:39.502Z,3.88
2023-03-17T13:04:39.476Z,3.72
2023-03-17T13:05:39.509Z,3.44
2023-03-17T13:06:39.537Z,3.19
2023-03-17T13:07:39.562Z,2.53
2023-03-17T13:08:39.667Z,2.31
2023-03-17T13:09:39.627Z,2.18
2023-03-17T13:10:39.650Z,1.94
2023-03-17T13:11:39.674Z,2.09
2023-03-17T13:12:39.707Z,1.99
2023-03-17T13:13:39.737Z,1.78
2023-03-17T13:14:39.763Z,2.00
2023-03-17T13:15:39.864Z,2.30
2023-03-17T13:16:39.809Z,2.19
2023-03-17T13:17:39.845Z,2.21
2023-03-17T13:18:39.869Z,1.87
2023-03-17T13:19:39.905Z,1.40
2023-03-17T13:20:39.937Z,1.15
2023-03-17T13:21:39.962Z,1.03
2023-03-17T13:22:40.000Z,1.24
2023-03-17T13:23:40.053Z,1.06
2023-03-17T13:24:40.053Z,1.29
2023-03-17T13:25:40.083Z,0.98
2023-03-17T13:26:40.206Z,0.83
2023-03-17T13:27:40.143Z,0.76
2023-03-17T13:28:40.182Z,0.53
2023-03-17T13:29:40.209Z,0.49
2023-03-17T13:30:40.256Z,0.49
2023-03-17T13:31:40.391Z,0.50
2023-03-17T13:32:40.344Z,0.50
2023-03-17T13:33:40.318Z,0.45
2023-03-17T13:34:40.358Z,0.48
2023-03-17T13:35:40.425Z,0.51
2023-03-17T13:36:40.410Z,0.54
2023-03-17T13:37:40.430Z,0.69
2023-03-17T13:38:40.470Z,0.72
2023-03-17T13:39:40.495Z,0.65
2023-03-17T13:40:40.538Z,0.67
2023-03-17T13:42:40.587Z,0.53
2023-03-17T17:13:47.996Z,17.14
2023-03-17T17:14:48.030Z,17.03
2023-03-17T17:15:48.109Z,17.15
2023-03-17T17:16:48.114Z,16.87
2023-03-17T17:17:48.172Z,17.25
2023-03-17T17:18:48.213Z,16.80
2023-03-17T17:19:48.250Z,16.88
2023-03-17T17:20:48.368Z,16.96
2023-03-17T17:21:48.349Z,16.53
2023-03-17T17:22:48.391Z,17.01
2023-03-17T17:23:48.434Z,16.87
2023-03-17T17:24:48.488Z,16.91
2023-03-17T17:25:48.529Z,16.91
2023-03-17T17:26:48.573Z,16.41
2023-03-17T17:27:48.640Z,16.07
2023-03-17T17:28:49.618Z,16.11
2023-03-17T17:29:48.611Z,16.14
2023-03-17T17:30:48.601Z,16.31
2023-03-17T17:31:48.673Z,16.29
2023-03-17T17:32:48.625Z,16.29
2023-03-17T17:33:48.604Z,16.36
2023-03-17T17:34:48.609Z,16.00
2023-03-17T17:35:48.601Z,15.95
2023-03-17T17:36:48.579Z,15.97
2023-03-17T17:37:48.575Z,15.97
2023-03-17T17:38:48.612Z,15.95
2023-03-17T17:39:48.653Z,16.04
2023-03-17T17:40:48.695Z,16.17
2023-03-17T17:41:48.746Z,15.77
2023-03-17T17:42:48.794Z,15.97
2023-03-17T17:43:48.880Z,15.49
2023-03-17T17:44:48.883Z,15.47
2023-03-17T17:45:49.867Z,15.39
2023-03-17T17:46:49.067Z,15.49
2023-03-17T17:47:49.026Z,15.51
2023-03-17T17:48:49.095Z,15.31
2023-03-17T17:49:49.122Z,15.23
2023-03-17T17:50:49.171Z,15.18
2023-03-17T17:51:49.285Z,15.42
2023-03-17T17:52:49.265Z,15.36
2023-03-17T17:53:49.318Z,15.26
2023-03-17T17:54:49.372Z,15.30
2023-03-17T17:55:49.423Z,14.86
2023-03-17T17:56:49.467Z,14.93
2023-03-17T17:57:52.312Z,15.09
2023-03-17T17:58:49.539Z,15.22
2023-03-17T17:59:49.534Z,15.39
2023-03-17T18:00:49.572Z,14.96
2023-03-17T18:01:49.534Z,15.40
2023-03-17T18:02:49.519Z,15.25
2023-03-17T18:03:49.529Z,14.86
2023-03-17T18:04:49.571Z,14.69
2023-03-17T18:05:49.571Z,14.90
2023-03-17T18:06:49.525Z,15.07
2023-03-17T18:07:49.531Z,14.88
2023-03-17T18:08:49.582Z,14.95
2023-03-17T18:09:49.545Z,14.88
2023-03-17T18:10:51.896Z,14.71
2023-03-17T18:11:49.808Z,14.74
2023-03-17T20:20:57.991Z,9.24
2023-03-17T20:21:58.047Z,9.21
2023-03-17T20:22:58.180Z,9.09
2023-03-17T20:23:58.175Z,9.03
2023-03-17T20:24:58.310Z,9.27
2023-03-17T20:25:58.315Z,9.08
2023-03-17T20:26:58.392Z,8.89
2023-03-17T20:27:58.441Z,9.03
2023-03-17T20:28:58.499Z,8.75
2023-03-17T20:29:58.575Z,9.01
2023-03-17T20:30:58.665Z,8.70
2023-03-17T20:31:58.696Z,8.67
2023-03-17T20:32:58.807Z,8.62
2023-03-17T20:33:58.828Z,8.70
2023-03-17T20:34:58.908Z,8.58
2023-03-17T20:35:58.993Z,8.87
2023-03-17T20:36:59.034Z,8.60
2023-03-17T20:37:59.148Z,8.40
2023-03-17T20:38:59.164Z,8.36
2023-03-17T20:39:59.225Z,8.40
2023-03-17T20:40:59.288Z,8.37
2023-03-17T20:41:59.349Z,8.26
2023-03-17T20:42:59.429Z,8.38
2023-03-17T20:43:59.489Z,8.36
2023-03-17T20:44:59.555Z,8.28
2023-03-17T20:45:59.620Z,8.30
2023-03-17T20:46:59.881Z,8.33
2023-03-17T20:47:59.745Z,8.15
2023-03-17T20:48:59.875Z,8.17
2023-03-17T20:49:59.873Z,8.00
2023-03-17T20:50:59.936Z,8.19
2023-03-17T20:52:00.010Z,8.21
2023-03-17T20:53:00.384Z,8.16
2023-03-17T20:54:00.158Z,7.97
2023-03-17T20:55:00.211Z,8.00
2023-03-17T20:56:00.326Z,7.99
2023-03-17T20:57:00.339Z,7.86
2023-03-17T20:58:00.393Z,7.66
2023-03-17T20:59:00.468Z,7.79
2023-03-17T21:00:00.530Z,7.87
2023-03-17T21:01:00.589Z,7.59
2023-03-17T21:02:00.736Z,7.66
2023-03-17T21:03:00.750Z,7.78
2023-03-17T21:04:00.782Z,7.79
2023-03-17T21:05:00.848Z,7.70
2023-03-17T21:06:00.906Z,7.60
2023-03-17T21:07:00.970Z,7.65
2023-03-17T21:08:01.044Z,7.65
2023-03-17T21:09:01.101Z,7.57
2023-03-17T21:11:01.214Z,7.49
2023-03-17T21:12:01.274Z,7.48
2023-03-17T21:13:01.327Z,7.31
2023-03-17T21:14:01.405Z,7.30
2023-03-17T21:15:01.460Z,7.31
2023-03-17T21:16:01.583Z,7.40
2023-03-17T21:17:01.591Z,7.32
2023-03-17T21:18:01.717Z,7.39
2023-03-17T21:19:01.707Z,7.25
2023-03-17T21:20:01.779Z,7.23
2023-03-17T21:21:01.826Z,7.33
2023-03-17T21:22:01.885Z,7.35
2023-03-17T21:23:01.944Z,7.27
2023-03-17T21:25:02.050Z,7.10
2023-03-17T21:26:02.110Z,7.15
2023-03-17T21:27:02.164Z,6.93
2023-03-17T21:28:02.208Z,6.99
2023-03-17T21:29:02.251Z,7.12
2023-03-17T21:30:02.289Z,6.99
2023-03-17T21:31:02.445Z,6.90
2023-03-17T21:32:02.402Z,6.91
2023-03-17T21:33:02.456Z,6.87
2023-03-17T21:34:02.503Z,6.85
2023-03-17T21:35:02.565Z,6.80
2023-03-17T21:36:02.720Z,6.92
2023-03-17T21:37:02.686Z,6.89
2023-03-17T21:38:02.721Z,6.69
2023-03-17T21:39:02.780Z,6.75
2023-03-17T21:40:02.840Z,6.84
2023-03-17T21:41:02.877Z,6.81
2023-03-17T21:42:02.933Z,6.70
2023-03-17T21:43:02.983Z,6.63
2023-03-17T21:44:03.031Z,6.60
2023-03-17T21:45:03.101Z,6.59
2023-03-17T21:46:03.188Z,6.61
2023-03-17T21:47:03.182Z,6.59
2023-03-17T21:48:03.238Z,6.48
2023-03-17T21:49:03.285Z,6.48
2023-03-17T21:50:03.347Z,6.50
2023-03-17T21:51:03.388Z,6.46
2023-03-17T21:52:03.433Z,6.50
2023-03-17T21:53:03.490Z,6.39
2023-03-17T21:54:03.544Z,6.39
2023-03-17T21:55:03.603Z,6.43
2023-03-17T21:56:03.664Z,6.32
2023-03-17T21:57:03.717Z,6.27
2023-03-17T21:58:03.748Z,6.25
2023-03-17T21:59:03.816Z,6.16
2023-03-17T22:00:03.864Z,6.31
2023-03-17T22:02:03.951Z,6.16
2023-03-17T22:03:04.027Z,6.11
2023-03-17T22:04:04.061Z,6.16
2023-03-17T22:06:04.161Z,6.14
2023-03-17T22:07:04.203Z,6.13
2023-03-17T22:08:04.247Z,6.01
2023-03-17T22:11:04.415Z,5.98
2023-03-17T22:12:04.451Z,5.98
2023-03-17T22:13:04.505Z,5.86
2023-03-17T22:14:04.557Z,5.81
2023-03-17T22:15:04.606Z,5.88
2023-03-17T22:16:04.671Z,5.92
2023-03-17T22:17:04.703Z,5.86
2023-03-17T22:18:04.749Z,5.78
2023-03-17T22:19:04.798Z,5.69
2023-03-17T22:21:04.807Z,5.71
2023-03-17T22:22:04.803Z,5.75
2023-03-17T22:23:04.809Z,5.81
2023-03-17T22:24:04.805Z,5.87
2023-03-17T22:25:04.802Z,5.80
2023-03-17T22:26:04.802Z,5.80
2023-03-17T22:27:04.810Z,5.85
2023-03-17T22:28:04.811Z,5.81
2023-03-17T22:29:04.794Z,5.80
2023-03-17T22:30:04.804Z,5.87
2023-03-17T22:32:04.945Z,5.80
2023-03-17T22:33:05.019Z,5.80
2023-03-17T22:34:04.998Z,5.64
2023-03-17T22:35:05.047Z,5.66
2023-03-17T22:36:05.154Z,5.52
2023-03-17T22:37:05.354Z,5.55
2023-03-17T22:38:05.191Z,5.67
2023-03-17T22:39:05.253Z,5.65
2023-03-17T22:40:05.290Z,5.48
2023-03-17T22:41:05.468Z,5.68
2023-03-17T22:42:05.394Z,5.53
2023-03-17T22:43:05.441Z,5.56
2023-03-17T22:44:05.487Z,5.47
2023-03-17T22:45:05.598Z,5.55
2023-03-17T22:46:05.593Z,5.46
2023-03-17T23:37:08.056Z,4.73
2023-03-17T23:38:08.025Z,4.80
2023-03-17T23:39:08.071Z,4.71
2023-03-17T23:40:08.118Z,4.74
2023-03-17T23:41:08.169Z,4.72
2023-03-17T23:42:08.212Z,4.64
2023-03-17T23:43:08.261Z,4.63
2023-03-17T23:44:08.310Z,4.61
2023-03-17T23:45:08.381Z,4.53
2023-03-17T23:46:08.540Z,4.61
2023-03-17T23:47:08.457Z,4.49
2023-03-17T23:48:08.516Z,4.51
2023-03-17T23:49:08.564Z,4.60
2023-03-17T23:50:08.604Z,4.62
2023-03-17T23:51:08.657Z,4.56
2023-03-17T23:52:08.740Z,4.51
2023-03-17T23:53:08.808Z,4.48
2023-03-17T23:54:08.834Z,4.49
2023-03-17T23:55:08.875Z,4.55
2023-03-17T23:56:08.931Z,4.50
2023-03-17T23:57:08.979Z,4.56
2023-03-17T23:58:09.039Z,4.54
2023-03-17T23:59:09.097Z,4.51
